createdAt,value
2018-12-05T00:01:20.960Z,56.37
2018-12-05T00:04:25.766Z,53.47
2018-12-05T00:07:30.379Z,71.20
2018-12-05T00:10:34.933Z,69.37
2018-12-05T00:13:39.437Z,63.63
2018-12-05T00:16:44.011Z,62.20
2018-12-05T00:19:48.532Z,60.50
2018-12-05T00:22:53.044Z,61.13
2018-12-05T00:25:57.676Z,57.73
2018-12-05T00:29:02.201Z,64.70
2018-12-05T00:32:06.756Z,61.07
2018-12-05T00:35:11.282Z,64.63
2018-12-05T00:38:22.206Z,59.27
2018-12-05T00:41:26.816Z,59.17
2018-12-05T00:44:31.397Z,62.10
2018-12-05T00:47:35.980Z,55.87
2018-12-05T00:50:40.510Z,56.57
2018-12-05T00:53:45.053Z,61.43
2018-12-05T00:56:49.627Z,56.93
2018-12-05T00:59:54.140Z,58.07
2018-12-05T01:02:58.697Z,55.93
2018-12-05T01:06:03.381Z,54.17
2018-12-05T01:09:13.078Z,56.87
2018-12-05T01:12:17.789Z,70.37
2018-12-05T01:15:22.801Z,63.03
2018-12-05T01:18:27.483Z,60.53
2018-12-05T01:21:32.272Z,56.30
2018-12-05T01:24:37.076Z,54.30
2018-12-05T01:27:41.740Z,56.10
2018-12-05T01:30:46.399Z,54.60
2018-12-05T01:33:52.066Z,55.63
2018-12-05T01:36:56.636Z,60.27
2018-12-05T01:40:01.141Z,71.17
2018-12-05T01:43:05.783Z,62.87
2018-12-05T01:46:10.288Z,62.67
2018-12-05T01:49:14.880Z,79.87
2018-12-05T01:52:19.469Z,78.67
2018-12-05T01:55:24.009Z,65.57
2018-12-05T01:58:28.594Z,56.57
2018-12-05T02:01:33.140Z,56.67
2018-12-05T02:04:37.650Z,56.17
2018-12-05T02:07:42.185Z,53.50
2018-12-05T02:10:46.733Z,55.40
2018-12-05T02:13:51.250Z,55.77
2018-12-05T02:16:55.753Z,54.00
2018-12-05T02:20:00.268Z,55.77
2018-12-05T02:23:04.805Z,56.20
2018-12-05T02:26:09.427Z,57.33
2018-12-05T02:29:13.930Z,57.63
2018-12-05T02:32:19.676Z,56.73
2018-12-05T02:35:24.189Z,55.97
2018-12-05T02:38:28.802Z,55.63
2018-12-05T02:41:33.289Z,58.80
2018-12-05T02:44:37.846Z,59.50
2018-12-05T02:47:42.425Z,68.33
2018-12-05T02:50:47.016Z,64.97
2018-12-05T02:53:51.594Z,60.03
2018-12-05T02:56:56.194Z,56.70
2018-12-05T03:00:00.713Z,56.07
2018-12-05T03:03:07.344Z,59.37
2018-12-05T03:06:11.913Z,58.53
2018-12-05T03:09:16.507Z,59.57
2018-12-05T03:12:21.031Z,59.20
2018-12-05T03:15:25.589Z,58.47
2018-12-05T03:18:30.147Z,59.90
2018-12-05T03:21:34.706Z,64.13
2018-12-05T03:24:39.269Z,66.83
2018-12-05T03:27:43.880Z,66.87
2018-12-05T03:30:48.404Z,66.10
2018-12-05T03:33:52.946Z,62.53
2018-12-05T03:36:57.551Z,65.97
2018-12-05T03:40:02.072Z,65.43
2018-12-05T03:43:06.644Z,64.47
2018-12-05T03:46:11.192Z,65.17
2018-12-05T03:49:15.946Z,62.93
2018-12-05T03:52:20.504Z,62.03
2018-12-05T03:55:25.070Z,64.93
2018-12-05T03:58:29.701Z,60.93
2018-12-05T04:01:34.261Z,55.33
2018-12-05T04:04:38.803Z,54.50
2018-12-05T04:07:43.353Z,52.23
2018-12-05T04:10:47.856Z,54.97
2018-12-05T04:13:52.379Z,56.17
2018-12-05T04:16:56.966Z,58.40
2018-12-05T04:20:01.579Z,59.23
2018-12-05T04:23:06.202Z,61.67
2018-12-05T04:26:10.715Z,64.73
2018-12-05T04:29:15.320Z,64.87
2018-12-05T04:32:20.880Z,63.37
2018-12-05T04:35:25.436Z,65.87
2018-12-05T04:38:30.051Z,69.80
2018-12-05T04:41:34.590Z,70.23
2018-12-05T04:44:39.104Z,69.50
2018-12-05T04:47:43.657Z,60.53
2018-12-05T04:50:48.171Z,69.00
2018-12-05T04:53:52.721Z,69.20
2018-12-05T04:56:57.313Z,69.90
2018-12-05T05:00:01.839Z,73.90
2018-12-05T05:03:06.485Z,73.87
2018-12-05T05:06:11.056Z,73.40
2018-12-05T05:09:15.607Z,85.03
2018-12-05T05:12:20.207Z,71.93
2018-12-05T05:15:24.726Z,108.23
2018-12-05T05:18:29.267Z,81.73
2018-12-05T05:21:33.859Z,65.07
2018-12-05T05:24:38.401Z,67.13
2018-12-05T05:27:45.924Z,59.20
2018-12-05T05:30:49.577Z,56.70
2018-12-05T05:33:54.140Z,56.63
2018-12-05T05:36:58.657Z,52.27
2018-12-05T05:40:03.223Z,52.20
2018-12-05T05:43:07.770Z,50.17
2018-12-05T05:46:12.354Z,49.93
2018-12-05T05:49:16.888Z,48.77
2018-12-05T05:52:21.399Z,50.83
2018-12-05T05:55:25.949Z,52.73
2018-12-05T05:58:30.495Z,50.23
2018-12-05T06:01:34.982Z,47.00
2018-12-05T06:04:39.626Z,50.80
2018-12-05T06:07:44.225Z,49.23
2018-12-05T06:10:48.737Z,50.97
2018-12-05T06:13:53.308Z,48.60
2018-12-05T06:16:57.811Z,48.27
2018-12-05T06:20:02.414Z,49.47
2018-12-05T06:23:06.999Z,55.87
2018-12-05T06:26:11.631Z,57.50
2018-12-05T06:29:16.136Z,58.30
2018-12-05T06:32:20.661Z,53.03
2018-12-05T06:35:25.317Z,52.87
2018-12-05T06:38:29.844Z,52.47
2018-12-05T06:41:34.342Z,54.67
2018-12-05T06:44:38.853Z,51.00
2018-12-05T06:47:43.398Z,48.97
2018-12-05T06:50:48.034Z,51.37
2018-12-05T06:53:52.570Z,47.37
2018-12-05T06:56:57.133Z,46.93
2018-12-05T07:00:01.689Z,41.20
2018-12-05T07:03:06.459Z,40.13
2018-12-05T07:06:10.966Z,34.83
2018-12-05T07:09:15.542Z,32.03
2018-12-05T07:12:20.090Z,31.07
2018-12-05T07:15:24.630Z,26.67
2018-12-05T07:18:29.185Z,28.17
2018-12-05T07:21:33.675Z,24.97
2018-12-05T07:24:38.241Z,21.80
2018-12-05T07:27:42.754Z,18.43
2018-12-05T07:30:47.296Z,19.93
2018-12-05T07:33:52.378Z,17.30
2018-12-05T07:36:56.958Z,19.50
2018-12-05T07:40:01.505Z,18.67
2018-12-05T07:43:06.152Z,22.90
2018-12-05T07:46:10.673Z,20.33
2018-12-05T07:49:15.219Z,19.60
2018-12-05T07:52:19.750Z,16.40
2018-12-05T07:55:24.269Z,17.00
2018-12-05T07:58:28.810Z,16.37
2018-12-05T08:01:33.375Z,16.53
2018-12-05T08:04:37.909Z,15.90
2018-12-05T08:07:42.553Z,16.17
2018-12-05T08:10:47.145Z,18.20
2018-12-05T08:13:51.660Z,16.97
2018-12-05T08:16:56.271Z,16.53
2018-12-05T08:20:00.789Z,16.73
2018-12-05T08:23:05.374Z,15.90
2018-12-05T08:26:09.972Z,15.13
2018-12-05T08:29:14.496Z,15.60
2018-12-05T08:32:20.077Z,15.20
2018-12-05T08:35:24.614Z,15.77
2018-12-05T08:38:30.324Z,14.60
2018-12-05T08:41:34.854Z,14.63
2018-12-05T08:44:39.459Z,13.83
2018-12-05T08:47:44.212Z,12.90
2018-12-05T08:50:49.377Z,11.47
2018-12-05T08:53:54.000Z,11.53
2018-12-05T08:56:58.549Z,10.77
2018-12-05T09:00:03.089Z,10.63
2018-12-05T09:03:09.694Z,11.23
2018-12-05T09:06:14.213Z,13.37
2018-12-05T09:09:18.918Z,13.43
2018-12-05T09:12:23.507Z,13.20
2018-12-05T09:15:28.106Z,14.37
2018-12-05T09:18:33.789Z,11.50
2018-12-05T09:21:38.306Z,12.87
2018-12-05T09:24:42.961Z,12.60
2018-12-05T09:27:47.483Z,12.53
2018-12-05T09:30:52.022Z,12.67
2018-12-05T09:33:57.657Z,12.30
2018-12-05T09:37:02.165Z,11.63
2018-12-05T09:40:07.467Z,11.43
2018-12-05T09:43:13.398Z,13.50
2018-12-05T09:46:17.961Z,11.57
2018-12-05T09:49:22.677Z,11.07
2018-12-05T09:52:27.245Z,10.97
2018-12-05T09:55:31.900Z,9.43
2018-12-05T09:58:36.442Z,9.53
2018-12-05T10:01:41.385Z,8.13
2018-12-05T10:04:45.993Z,8.90
2018-12-05T10:07:50.674Z,9.97
2018-12-05T10:10:55.178Z,8.77
2018-12-05T10:13:59.738Z,7.47
2018-12-05T10:17:04.330Z,8.60
2018-12-05T10:20:09.034Z,7.50
2018-12-05T10:23:13.705Z,8.07
2018-12-05T10:26:18.321Z,10.47
2018-12-05T10:29:22.978Z,7.23
2018-12-05T10:32:27.540Z,7.93
2018-12-05T10:35:32.129Z,8.40
2018-12-05T10:38:36.685Z,8.00
2018-12-05T10:41:41.391Z,8.50
2018-12-05T10:44:46.073Z,8.57
2018-12-05T10:47:50.621Z,7.20
2018-12-05T10:50:55.391Z,7.97
2018-12-05T10:53:59.958Z,6.43
2018-12-05T10:57:04.592Z,7.20
2018-12-05T11:00:13.817Z,7.53
2018-12-05T11:03:23.968Z,6.77
2018-12-05T11:06:33.720Z,5.50
2018-12-05T11:09:43.230Z,6.00
2018-12-05T11:12:52.966Z,6.23
2018-12-05T11:16:05.527Z,6.30
2018-12-05T11:19:15.175Z,6.40
2018-12-05T11:22:24.699Z,7.23
2018-12-05T11:25:29.791Z,6.63
2018-12-05T11:28:34.444Z,7.47
2018-12-05T11:31:38.952Z,6.53
2018-12-05T11:34:43.490Z,6.37
2018-12-05T11:37:48.003Z,6.60
2018-12-05T11:40:52.558Z,6.63
2018-12-05T11:43:57.125Z,5.83
2018-12-05T11:47:01.640Z,8.87
2018-12-05T11:50:06.455Z,7.50
2018-12-05T11:53:10.985Z,6.13
2018-12-05T11:56:15.709Z,5.93
2018-12-05T11:59:20.420Z,5.10
2018-12-05T12:02:24.955Z,6.63
2018-12-05T12:05:31.574Z,6.07
2018-12-05T12:08:36.243Z,6.87
2018-12-05T12:11:40.992Z,6.57
2018-12-05T12:14:45.488Z,7.73
2018-12-05T12:17:50.567Z,8.67
2018-12-05T12:20:55.699Z,7.20
2018-12-05T12:24:00.245Z,10.00
2018-12-05T12:27:04.928Z,9.73
2018-12-05T12:30:15.898Z,6.07
2018-12-05T12:33:17.902Z,5.73
2018-12-05T12:36:22.442Z,6.00
2018-12-05T12:39:26.990Z,5.50
2018-12-05T12:42:31.566Z,6.47
2018-12-05T12:45:36.098Z,6.27
2018-12-05T12:48:40.709Z,5.33
2018-12-05T12:51:45.230Z,5.53
2018-12-05T12:54:54.241Z,5.03
2018-12-05T12:57:58.765Z,5.27
2018-12-05T13:01:03.325Z,5.53
2018-12-05T13:04:07.890Z,6.17
2018-12-05T13:07:12.464Z,6.10
2018-12-05T13:10:17.003Z,7.50
2018-12-05T13:13:22.415Z,5.80
2018-12-05T13:16:26.935Z,6.50
2018-12-05T13:19:31.484Z,7.43
2018-12-05T13:22:36.006Z,6.70
2018-12-05T13:25:41.669Z,6.80
2018-12-05T13:28:46.575Z,6.57
2018-12-05T13:31:51.176Z,7.57
2018-12-05T13:34:55.674Z,7.87
2018-12-05T13:38:00.888Z,8.67
2018-12-05T13:41:05.467Z,10.47
2018-12-05T13:44:10.254Z,12.17
2018-12-05T13:47:14.786Z,11.10
2018-12-05T13:50:19.447Z,12.67
2018-12-05T13:53:24.742Z,12.43
2018-12-05T13:56:29.354Z,8.90
2018-12-05T13:59:33.872Z,12.80
2018-12-05T14:02:38.381Z,9.30
2018-12-05T14:05:41.753Z,11.07
2018-12-05T14:08:47.526Z,14.67
2018-12-05T14:11:52.030Z,13.70
2018-12-05T14:14:57.279Z,8.53
2018-12-05T14:18:03.285Z,7.33
2018-12-05T14:21:08.273Z,8.43
2018-12-05T14:24:12.808Z,8.40
2018-12-05T14:27:17.344Z,8.10
2018-12-05T14:30:22.063Z,7.23
2018-12-05T14:33:26.598Z,7.87
2018-12-05T14:36:31.175Z,9.27
2018-12-05T14:39:35.756Z,8.20
2018-12-05T14:42:40.314Z,7.53
2018-12-05T14:45:44.797Z,10.27
2018-12-05T14:48:49.321Z,11.60
2018-12-05T14:51:53.860Z,17.50
2018-12-05T14:54:58.494Z,11.00
2018-12-05T14:58:03.021Z,16.20
2018-12-05T15:01:07.657Z,8.07
2018-12-05T15:04:12.166Z,9.50
2018-12-05T15:07:16.757Z,9.20
2018-12-05T15:10:21.258Z,9.23
2018-12-05T15:13:25.844Z,8.83
2018-12-05T15:16:30.417Z,9.97
2018-12-05T15:19:34.996Z,8.20
2018-12-05T15:22:39.523Z,7.80
2018-12-05T15:25:44.049Z,8.67
2018-12-05T15:28:48.615Z,8.27
2018-12-05T15:31:53.200Z,8.23
2018-12-05T15:34:57.859Z,9.50
2018-12-05T15:38:02.378Z,7.37
2018-12-05T15:41:06.919Z,9.77
2018-12-05T15:44:11.547Z,7.77
2018-12-05T15:47:16.090Z,9.73
2018-12-05T15:50:20.588Z,7.53
2018-12-05T15:53:25.141Z,8.30
2018-12-05T15:56:29.701Z,7.63
2018-12-05T15:59:34.244Z,6.47
2018-12-05T16:02:38.890Z,6.87
2018-12-05T16:05:43.439Z,8.20
2018-12-05T16:08:48.114Z,7.23
2018-12-05T16:11:52.676Z,7.27
2018-12-05T16:14:57.207Z,7.63
2018-12-05T16:18:01.737Z,8.57
2018-12-05T16:21:06.298Z,8.53
2018-12-05T16:24:10.835Z,7.90
2018-12-05T16:27:15.357Z,7.40
2018-12-05T16:30:21.520Z,7.73
2018-12-05T16:33:26.208Z,9.57
2018-12-05T16:36:30.831Z,9.20
2018-12-05T16:39:35.366Z,9.30
2018-12-05T16:42:39.898Z,9.33
2018-12-05T16:45:45.126Z,9.20
2018-12-05T16:52:07.462Z,9.53
2018-12-05T16:55:12.098Z,10.57
2018-12-05T16:58:16.781Z,9.83
2018-12-05T17:01:21.281Z,18.47
2018-12-05T17:04:25.788Z,20.53
2018-12-05T17:07:30.411Z,13.50
2018-12-05T17:10:35.008Z,11.47
2018-12-05T17:13:42.678Z,12.27
2018-12-05T17:16:47.206Z,10.17
2018-12-05T17:19:51.804Z,10.10
2018-12-05T17:22:56.340Z,11.50
2018-12-05T17:26:00.875Z,13.27
2018-12-05T17:29:05.624Z,23.90
2018-12-05T17:32:10.252Z,44.60
2018-12-05T17:35:14.827Z,18.90
2018-12-05T17:38:19.413Z,13.93
2018-12-05T17:41:23.983Z,16.57
2018-12-05T17:44:28.598Z,11.00
2018-12-05T17:47:33.179Z,11.93
2018-12-05T17:50:37.748Z,11.97
2018-12-05T17:53:42.351Z,11.63
2018-12-05T17:56:46.895Z,10.43
2018-12-05T17:59:51.507Z,14.00
2018-12-05T18:02:57.524Z,11.73
2018-12-05T18:06:02.047Z,8.53
2018-12-05T18:09:08.714Z,16.07
2018-12-05T18:12:13.312Z,9.90
2018-12-05T18:15:17.885Z,11.07
2018-12-05T18:18:22.463Z,16.20
2018-12-05T18:21:27.072Z,9.30
2018-12-05T18:24:31.626Z,9.10
2018-12-05T18:27:36.493Z,8.43
2018-12-05T18:30:41.396Z,10.97
2018-12-05T18:33:46.054Z,9.27
2018-12-05T18:36:50.563Z,11.77
2018-12-05T18:39:55.213Z,11.07
2018-12-05T18:42:59.738Z,10.80
2018-12-05T18:46:04.353Z,9.57
2018-12-05T18:49:09.173Z,9.70
2018-12-05T18:52:13.746Z,7.57
2018-12-05T18:55:18.321Z,8.63
2018-12-05T18:58:23.017Z,9.00
2018-12-05T19:01:27.605Z,10.10
2018-12-05T19:04:32.237Z,9.37
2018-12-05T19:07:36.812Z,8.83
2018-12-05T19:10:41.401Z,15.87
2018-12-05T19:13:51.196Z,11.07
2018-12-05T19:16:55.724Z,10.77
2018-12-05T19:20:01.313Z,16.90
2018-12-05T19:23:07.132Z,13.30
2018-12-05T19:26:11.673Z,10.13
2018-12-05T19:29:16.257Z,10.47
2018-12-05T19:32:20.882Z,10.50
2018-12-05T19:35:25.442Z,9.47
2018-12-05T19:38:30.097Z,9.27
2018-12-05T19:41:35.206Z,10.17
2018-12-05T19:44:39.714Z,10.57
2018-12-05T19:47:44.247Z,9.97
2018-12-05T19:50:48.877Z,16.10
2018-12-05T19:53:53.366Z,11.33
2018-12-05T19:56:58.187Z,11.33
2018-12-05T20:00:02.698Z,11.60
2018-12-05T20:03:07.396Z,9.53
2018-12-05T20:06:12.280Z,11.23
2018-12-05T20:09:16.866Z,11.97
2018-12-05T20:12:21.640Z,13.00
2018-12-05T20:15:26.198Z,34.40
2018-12-05T20:18:30.786Z,16.03
2018-12-05T20:21:35.306Z,9.50
2018-12-05T20:24:39.901Z,12.90
2018-12-05T20:27:44.423Z,11.40
2018-12-05T20:30:48.981Z,11.63
2018-12-05T20:33:53.525Z,23.77
2018-12-05T20:36:58.070Z,12.30
2018-12-05T20:40:02.624Z,17.47
2018-12-05T20:43:08.175Z,17.93
2018-12-05T20:46:12.746Z,10.53
2018-12-05T20:49:17.277Z,9.40
2018-12-05T20:52:21.784Z,9.53
2018-12-05T20:55:26.454Z,8.83
2018-12-05T20:58:31.029Z,9.00
2018-12-05T21:01:35.595Z,9.03
2018-12-05T21:04:41.398Z,9.10
2018-12-05T21:07:46.039Z,9.30
2018-12-05T21:10:50.629Z,9.87
2018-12-05T21:13:55.133Z,8.60
2018-12-05T21:16:59.754Z,9.27
2018-12-05T21:20:04.533Z,9.60
2018-12-05T21:23:09.175Z,9.73
2018-12-05T21:26:13.703Z,9.97
2018-12-05T21:29:18.261Z,7.97
2018-12-05T21:32:22.955Z,8.67
2018-12-05T21:35:27.576Z,9.27
2018-12-05T21:38:32.065Z,9.07
2018-12-05T21:41:36.688Z,8.97
2018-12-05T21:44:41.232Z,9.33
2018-12-05T21:47:45.878Z,8.37
2018-12-05T21:50:50.380Z,9.60
2018-12-05T21:53:54.919Z,9.70
2018-12-05T21:56:59.422Z,8.70
2018-12-05T22:00:04.489Z,9.47
2018-12-05T22:03:11.667Z,8.30
2018-12-05T22:06:16.214Z,9.67
2018-12-05T22:09:20.833Z,7.57
2018-12-05T22:12:25.334Z,9.70
2018-12-05T22:15:29.890Z,9.83
2018-12-05T22:18:34.407Z,9.53
2018-12-05T22:21:38.944Z,9.03
2018-12-05T22:24:43.443Z,8.83
2018-12-05T22:27:47.974Z,9.30
2018-12-05T22:30:52.558Z,15.07
2018-12-05T22:33:57.095Z,8.97
2018-12-05T22:37:01.656Z,10.73
2018-12-05T22:40:07.766Z,9.20
2018-12-05T22:43:12.267Z,8.77
2018-12-05T22:46:16.922Z,8.17
2018-12-05T22:49:21.516Z,9.50
2018-12-05T22:52:26.206Z,8.77
2018-12-05T22:55:30.780Z,6.90
2018-12-05T22:58:35.336Z,9.30
2018-12-05T23:01:39.843Z,8.83
2018-12-05T23:04:44.440Z,10.00
2018-12-05T23:07:49.342Z,11.27
2018-12-05T23:10:53.843Z,9.90
2018-12-05T23:13:58.345Z,8.67
2018-12-05T23:17:02.870Z,9.23
2018-12-05T23:20:08.507Z,8.77
2018-12-05T23:23:13.079Z,9.60
2018-12-05T23:26:17.720Z,8.83
2018-12-05T23:29:22.251Z,8.37
2018-12-05T23:32:26.752Z,8.33
2018-12-05T23:35:31.388Z,8.93
2018-12-05T23:38:35.891Z,9.53
2018-12-05T23:41:40.429Z,9.27
2018-12-05T23:45:01.135Z,8.77
2018-12-05T23:48:11.165Z,9.30
2018-12-05T23:51:15.692Z,8.77
2018-12-05T23:54:20.181Z,8.87
2018-12-05T23:57:24.750Z,9.20
